sensor_id;sensor_type;location;lat;lon;timestamp;pressure;altitude;pressure_sealevel;temperature;humidity
38718;BME280;24468;52.128;9.278;2023-05-29T00:00:18;101305.03;;;13.19;100.00
38718;BME280;24468;52.128;9.278;2023-05-29T00:02:49;101301.38;;;13.20;100.00
38718;BME280;24468;52.128;9.278;2023-05-29T00:05:15;101310.31;;;13.22;100.00
38718;BME280;24468;52.128;9.278;2023-05-29T00:07:41;101304.91;;;13.22;100.00
38718;BME280;24468;52.128;9.278;2023-05-29T00:10:08;101317.22;;;13.09;100.00
38718;BME280;24468;52.128;9.278;2023-05-29T00:12:35;101314.00;;;12.99;100.00
38718;BME280;24468;52.128;9.278;2023-05-29T00:15:01;101302.47;;;12.94;100.00
38718;BME280;24468;52.128;9.278;2023-05-29T00:17:29;101301.28;;;12.79;100.00
38718;BME280;24468;52.128;9.278;2023-05-29T00:19:58;101312.38;;;12.51;100.00
38718;BME280;24468;52.128;9.278;2023-05-29T00:22:24;101302.91;;;12.61;100.00
38718;BME280;24468;52.128;9.278;2023-05-29T00:24:50;101304.75;;;12.61;100.00
38718;BME280;24468;52.128;9.278;2023-05-29T00:27:16;101302.34;;;12.53;100.00
38718;BME280;24468;52.128;9.278;2023-05-29T00:29:41;101302.69;;;12.45;100.00
38718;BME280;24468;52.128;9.278;2023-05-29T00:32:07;101309.47;;;12.56;100.00
38718;BME280;24468;52.128;9.278;2023-05-29T00:34:32;101310.53;;;12.52;100.00
38718;BME280;24468;52.128;9.278;2023-05-29T00:36:58;101313.38;;;12.49;100.00
38718;BME280;24468;52.128;9.278;2023-05-29T00:39:24;101322.50;;;12.46;100.00
38718;BME280;24468;52.128;9.278;2023-05-29T00:41:49;101330.22;;;12.33;100.00
38718;BME280;24468;52.128;9.278;2023-05-29T00:44:18;101329.28;;;12.34;100.00
38718;BME280;24468;52.128;9.278;2023-05-29T00:46:45;101320.16;;;12.37;100.00
38718;BME280;24468;52.128;9.278;2023-05-29T00:49:10;101329.75;;;12.22;100.00
38718;BME280;24468;52.128;9.278;2023-05-29T00:51:37;101342.53;;;12.18;100.00
38718;BME280;24468;52.128;9.278;2023-05-29T00:54:06;101332.66;;;12.39;100.00
38718;BME280;24468;52.128;9.278;2023-05-29T00:56:34;101334.50;;;12.39;100.00
38718;BME280;24468;52.128;9.278;2023-05-29T00:59:01;101336.09;;;12.21;100.00
38718;BME280;24468;52.128;9.278;2023-05-29T01:01:26;101338.47;;;12.07;100.00
38718;BME280;24468;52.128;9.278;2023-05-29T01:03:55;101333.09;;;12.05;100.00
38718;BME280;24468;52.128;9.278;2023-05-29T01:06:23;101332.94;;;12.10;100.00
38718;BME280;24468;52.128;9.278;2023-05-29T01:08:49;101339.16;;;12.35;100.00
38718;BME280;24468;52.128;9.278;2023-05-29T01:13:57;101343.75;;;12.10;100.00
38718;BME280;24468;52.128;9.278;2023-05-29T01:17:25;101348.09;;;11.90;100.00
38718;BME280;24468;52.128;9.278;2023-05-29T01:20:08;101339.47;;;12.04;100.00
38718;BME280;24468;52.128;9.278;2023-05-29T01:23:15;101347.25;;;11.88;100.00
38718;BME280;24468;52.128;9.278;2023-05-29T01:26:31;101346.06;;;12.20;100.00
38718;BME280;24468;52.128;9.278;2023-05-29T01:29:00;101345.38;;;12.14;100.00
38718;BME280;24468;52.128;9.278;2023-05-29T01:31:28;101341.69;;;12.16;100.00
38718;BME280;24468;52.128;9.278;2023-05-29T01:33:57;101344.97;;;12.01;100.00
38718;BME280;24468;52.128;9.278;2023-05-29T01:36:24;101333.22;;;12.02;100.00
38718;BME280;24468;52.128;9.278;2023-05-29T01:38:51;101343.81;;;11.83;100.00
38718;BME280;24468;52.128;9.278;2023-05-29T01:41:19;101342.94;;;11.83;100.00
38718;BME280;24468;52.128;9.278;2023-05-29T01:43:47;101349.59;;;11.97;100.00
38718;BME280;24468;52.128;9.278;2023-05-29T01:46:14;101348.13;;;11.89;100.00
38718;BME280;24468;52.128;9.278;2023-05-29T01:48:43;101343.09;;;11.78;100.00
38718;BME280;24468;52.128;9.278;2023-05-29T01:51:10;101344.16;;;11.99;100.00
38718;BME280;24468;52.128;9.278;2023-05-29T01:53:37;101350.03;;;11.85;100.00
38718;BME280;24468;52.128;9.278;2023-05-29T01:56:05;101348.03;;;11.65;100.00
38718;BME280;24468;52.128;9.278;2023-05-29T01:58:31;101352.44;;;11.43;100.00
38718;BME280;24468;52.128;9.278;2023-05-29T02:00:58;101358.19;;;11.33;100.00
38718;BME280;24468;52.128;9.278;2023-05-29T02:03:23;101362.66;;;11.34;100.00
38718;BME280;24468;52.128;9.278;2023-05-29T02:05:49;101361.75;;;11.34;100.00
38718;BME280;24468;52.128;9.278;2023-05-29T02:08:15;101359.28;;;11.28;100.00
38718;BME280;24468;52.128;9.278;2023-05-29T02:10:41;101359.66;;;11.17;100.00
38718;BME280;24468;52.128;9.278;2023-05-29T02:13:07;101361.16;;;11.26;100.00
38718;BME280;24468;52.128;9.278;2023-05-29T02:15:32;101362.19;;;11.22;100.00
38718;BME280;24468;52.128;9.278;2023-05-29T02:17:58;101377.59;;;11.18;100.00
38718;BME280;24468;52.128;9.278;2023-05-29T02:20:26;101380.88;;;11.01;100.00
38718;BME280;24468;52.128;9.278;2023-05-29T02:22:52;101371.75;;;11.05;100.00
38718;BME280;24468;52.128;9.278;2023-05-29T02:25:18;101377.78;;;11.13;100.00
38718;BME280;24468;52.128;9.278;2023-05-29T02:27:43;101380.72;;;11.06;100.00
38718;BME280;24468;52.128;9.278;2023-05-29T02:30:09;101382.56;;;11.05;100.00
38718;BME280;24468;52.128;9.278;2023-05-29T02:32:35;101389.41;;;10.87;100.00
38718;BME280;24468;52.128;9.278;2023-05-29T02:35:02;101383.34;;;10.81;100.00
38718;BME280;24468;52.128;9.278;2023-05-29T02:37:27;101386.25;;;11.03;100.00
38718;BME280;24468;52.128;9.278;2023-05-29T02:39:53;101387.59;;;10.88;100.00
38718;BME280;24468;52.128;9.278;2023-05-29T02:42:19;101380.94;;;11.00;100.00
38718;BME280;24468;52.128;9.278;2023-05-29T02:44:44;101391.13;;;10.90;100.00
38718;BME280;24468;52.128;9.278;2023-05-29T02:47:10;101389.97;;;10.71;100.00
38718;BME280;24468;52.128;9.278;2023-05-29T02:49:35;101390.69;;;10.48;100.00
38718;BME280;24468;52.128;9.278;2023-05-29T02:52:01;101396.03;;;10.49;100.00
38718;BME280;24468;52.128;9.278;2023-05-29T02:54:26;101400.34;;;10.55;100.00
38718;BME280;24468;52.128;9.278;2023-05-29T02:56:52;101401.31;;;10.52;100.00
38718;BME280;24468;52.128;9.278;2023-05-29T02:59:18;101398.06;;;10.71;100.00
38718;BME280;24468;52.128;9.278;2023-05-29T03:01:44;101403.59;;;10.66;100.00
38718;BME280;24468;52.128;9.278;2023-05-29T03:04:10;101397.13;;;10.72;100.00
38718;BME280;24468;52.128;9.278;2023-05-29T03:06:36;101398.00;;;10.72;100.00
38718;BME280;24468;52.128;9.278;2023-05-29T03:09:04;101401.31;;;10.52;100.00
38718;BME280;24468;52.128;9.278;2023-05-29T03:11:33;101395.03;;;10.52;100.00
38718;BME280;24468;52.128;9.278;2023-05-29T03:14:01;101401.50;;;10.46;100.00
38718;BME280;24468;52.128;9.278;2023-05-29T03:16:26;101396.69;;;10.85;100.00
38718;BME280;24468;52.128;9.278;2023-05-29T03:18:55;101396.44;;;10.65;100.00
38718;BME280;24468;52.128;9.278;2023-05-29T03:21:20;101393.94;;;10.87;100.00
38718;BME280;24468;52.128;9.278;2023-05-29T03:23:47;101396.44;;;10.93;100.00
38718;BME280;24468;52.128;9.278;2023-05-29T03:26:12;101391.47;;;11.07;100.00
38718;BME280;24468;52.128;9.278;2023-05-29T03:28:39;101400.09;;;10.92;100.00
38718;BME280;24468;52.128;9.278;2023-05-29T03:31:04;101403.78;;;10.88;100.00
38718;BME280;24468;52.128;9.278;2023-05-29T03:33:30;101403.22;;;11.06;100.00
38718;BME280;24468;52.128;9.278;2023-05-29T03:35:55;101391.50;;;11.34;100.00
38718;BME280;24468;52.128;9.278;2023-05-29T03:38:23;101395.88;;;11.38;100.00
38718;BME280;24468;52.128;9.278;2023-05-29T03:40:49;101388.09;;;11.54;100.00
38718;BME280;24468;52.128;9.278;2023-05-29T03:43:14;101393.84;;;11.43;100.00
38718;BME280;24468;52.128;9.278;2023-05-29T03:45:40;101395.22;;;11.56;100.00
38718;BME280;24468;52.128;9.278;2023-05-29T03:48:06;101399.50;;;11.62;100.00
38718;BME280;24468;52.128;9.278;2023-05-29T03:50:31;101408.69;;;11.58;100.00
38718;BME280;24468;52.128;9.278;2023-05-29T03:52:57;101411.03;;;11.42;100.00
38718;BME280;24468;52.128;9.278;2023-05-29T03:55:22;101408.56;;;11.08;100.00
38718;BME280;24468;52.128;9.278;2023-05-29T03:57:48;101423.56;;;10.88;100.00
38718;BME280;24468;52.128;9.278;2023-05-29T04:00:14;101424.31;;;10.65;100.00
38718;BME280;24468;52.128;9.278;2023-05-29T04:02:40;101436.00;;;10.94;100.00
38718;BME280;24468;52.128;9.278;2023-05-29T04:05:07;101424.75;;;10.80;100.00
38718;BME280;24468;52.128;9.278;2023-05-29T04:07:35;101425.25;;;10.64;100.00
38718;BME280;24468;52.128;9.278;2023-05-29T04:10:02;101422.59;;;10.91;100.00
38718;BME280;24468;52.128;9.278;2023-05-29T04:12:28;101436.72;;;10.99;100.00
38718;BME280;24468;52.128;9.278;2023-05-29T04:14:54;101439.44;;;10.99;100.00
38718;BME280;24468;52.128;9.278;2023-05-29T04:17:19;101433.66;;;11.11;100.00
38718;BME280;24468;52.128;9.278;2023-05-29T04:19:45;101428.72;;;10.96;100.00
38718;BME280;24468;52.128;9.278;2023-05-29T04:22:11;101436.84;;;10.96;100.00
38718;BME280;24468;52.128;9.278;2023-05-29T04:24:36;101430.94;;;11.11;100.00
38718;BME280;24468;52.128;9.278;2023-05-29T04:27:02;101438.78;;;10.91;100.00
38718;BME280;24468;52.128;9.278;2023-05-29T04:29:29;101422.66;;;11.18;100.00
38718;BME280;24468;52.128;9.278;2023-05-29T04:31:54;101431.53;;;10.93;100.00
38718;BME280;24468;52.128;9.278;2023-05-29T04:34:21;101426.41;;;11.13;100.00
38718;BME280;24468;52.128;9.278;2023-05-29T04:36:47;101433.25;;;11.24;100.00
38718;BME280;24468;52.128;9.278;2023-05-29T04:39:13;101434.91;;;11.28;100.00
38718;BME280;24468;52.128;9.278;2023-05-29T04:41:43;101438.72;;;11.22;100.00
38718;BME280;24468;52.128;9.278;2023-05-29T04:44:08;101436.69;;;11.55;100.00
38718;BME280;24468;52.128;9.278;2023-05-29T04:46:36;101431.19;;;11.58;100.00
38718;BME280;24468;52.128;9.278;2023-05-29T04:49:03;101442.25;;;11.51;100.00
38718;BME280;24468;52.128;9.278;2023-05-29T04:51:30;101435.66;;;11.33;100.00
38718;BME280;24468;52.128;9.278;2023-05-29T04:53:56;101438.22;;;11.63;100.00
38718;BME280;24468;52.128;9.278;2023-05-29T04:56:22;101434.09;;;11.52;100.00
38718;BME280;24468;52.128;9.278;2023-05-29T04:58:47;101436.19;;;11.16;100.00
38718;BME280;24468;52.128;9.278;2023-05-29T05:01:14;101439.78;;;11.43;100.00
38718;BME280;24468;52.128;9.278;2023-05-29T05:03:41;101444.28;;;11.44;100.00
38718;BME280;24468;52.128;9.278;2023-05-29T05:06:06;101444.53;;;11.37;100.00
38718;BME280;24468;52.128;9.278;2023-05-29T05:08:33;101443.03;;;11.28;100.00
38718;BME280;24468;52.128;9.278;2023-05-29T05:11:00;101446.88;;;11.47;100.00
38718;BME280;24468;52.128;9.278;2023-05-29T05:13:26;101435.72;;;11.58;100.00
38718;BME280;24468;52.128;9.278;2023-05-29T05:15:52;101445.16;;;11.45;100.00
38718;BME280;24468;52.128;9.278;2023-05-29T05:18:18;101437.06;;;11.45;100.00
38718;BME280;24468;52.128;9.278;2023-05-29T05:20:44;101436.59;;;11.84;100.00
38718;BME280;24468;52.128;9.278;2023-05-29T05:23:09;101441.72;;;11.93;100.00
38718;BME280;24468;52.128;9.278;2023-05-29T05:25:36;101444.41;;;11.93;100.00
38718;BME280;24468;52.128;9.278;2023-05-29T05:28:02;101449.75;;;11.96;100.00
38718;BME280;24468;52.128;9.278;2023-05-29T05:30:31;101455.91;;;11.99;100.00
38718;BME280;24468;52.128;9.278;2023-05-29T05:32:57;101445.09;;;12.24;100.00
38718;BME280;24468;52.128;9.278;2023-05-29T05:35:24;101440.28;;;12.56;100.00
38718;BME280;24468;52.128;9.278;2023-05-29T05:37:49;101439.81;;;11.96;100.00
38718;BME280;24468;52.128;9.278;2023-05-29T05:40:15;101444.72;;;12.34;100.00
38718;BME280;24468;52.128;9.278;2023-05-29T05:42:41;101438.56;;;12.30;100.00
38718;BME280;24468;52.128;9.278;2023-05-29T05:45:07;101435.38;;;12.19;100.00
38718;BME280;24468;52.128;9.278;2023-05-29T05:47:33;101432.88;;;12.38;100.00
38718;BME280;24468;52.128;9.278;2023-05-29T05:49:59;101434.16;;;12.28;100.00
38718;BME280;24468;52.128;9.278;2023-05-29T05:52:24;101453.63;;;12.61;100.00
38718;BME280;24468;52.128;9.278;2023-05-29T05:54:51;101458.16;;;12.12;100.00
38718;BME280;24468;52.128;9.278;2023-05-29T05:57:17;101458.53;;;12.51;100.00
38718;BME280;24468;52.128;9.278;2023-05-29T05:59:42;101452.06;;;12.79;100.00
38718;BME280;24468;52.128;9.278;2023-05-29T06:02:08;101464.38;;;12.39;100.00
38718;BME280;24468;52.128;9.278;2023-05-29T06:04:34;101459.53;;;12.49;100.00
38718;BME280;24468;52.128;9.278;2023-05-29T06:06:59;101457.66;;;12.51;100.00
38718;BME280;24468;52.128;9.278;2023-05-29T06:09:25;101460.44;;;12.48;100.00
38718;BME280;24468;52.128;9.278;2023-05-29T06:11:51;101455.75;;;12.53;100.00
38718;BME280;24468;52.128;9.278;2023-05-29T06:14:16;101452.03;;;12.32;100.00
38718;BME280;24468;52.128;9.278;2023-05-29T06:16:42;101460.22;;;12.30;100.00
38718;BME280;24468;52.128;9.278;2023-05-29T06:19:08;101457.53;;;12.54;100.00
38718;BME280;24468;52.128;9.278;2023-05-29T06:21:34;101458.97;;;13.09;100.00
38718;BME280;24468;52.128;9.278;2023-05-29T06:23:59;101451.69;;;12.88;100.00
38718;BME280;24468;52.128;9.278;2023-05-29T06:26:25;101453.69;;;12.83;100.00
38718;BME280;24468;52.128;9.278;2023-05-29T06:28:52;101459.47;;;12.74;100.00
38718;BME280;24468;52.128;9.278;2023-05-29T06:31:19;101458.72;;;12.70;100.00
38718;BME280;24468;52.128;9.278;2023-05-29T06:33:45;101456.63;;;13.00;100.00
38718;BME280;24468;52.128;9.278;2023-05-29T06:36:10;101462.84;;;13.02;100.00
38718;BME280;24468;52.128;9.278;2023-05-29T06:38:37;101466.75;;;12.95;100.00
38718;BME280;24468;52.128;9.278;2023-05-29T06:41:03;101472.19;;;13.17;100.00
38718;BME280;24468;52.128;9.278;2023-05-29T06:43:28;101475.78;;;13.18;100.00
38718;BME280;24468;52.128;9.278;2023-05-29T06:45:54;101482.59;;;12.82;100.00
38718;BME280;24468;52.128;9.278;2023-05-29T06:48:20;101472.59;;;12.84;100.00
38718;BME280;24468;52.128;9.278;2023-05-29T06:50:47;101485.06;;;12.88;100.00
38718;BME280;24468;52.128;9.278;2023-05-29T06:53:13;101485.72;;;12.95;100.00
38718;BME280;24468;52.128;9.278;2023-05-29T06:55:38;101480.06;;;13.01;100.00
38718;BME280;24468;52.128;9.278;2023-05-29T06:58:06;101498.59;;;13.12;100.00
38718;BME280;24468;52.128;9.278;2023-05-29T07:00:32;101497.09;;;12.81;100.00
38718;BME280;24468;52.128;9.278;2023-05-29T07:02:57;101501.03;;;12.73;100.00
38718;BME280;24468;52.128;9.278;2023-05-29T07:05:23;101497.47;;;13.18;100.00
38718;BME280;24468;52.128;9.278;2023-05-29T07:07:48;101502.59;;;13.25;100.00
38718;BME280;24468;52.128;9.278;2023-05-29T07:10:14;101506.97;;;13.06;100.00
38718;BME280;24468;52.128;9.278;2023-05-29T07:12:40;101499.25;;;13.63;100.00
38718;BME280;24468;52.128;9.278;2023-05-29T07:15:06;101509.75;;;13.50;100.00
38718;BME280;24468;52.128;9.278;2023-05-29T07:17:31;101502.09;;;13.60;100.00
38718;BME280;24468;52.128;9.278;2023-05-29T07:19:57;101503.72;;;13.20;100.00
38718;BME280;24468;52.128;9.278;2023-05-29T07:22:22;101506.91;;;13.53;100.00
38718;BME280;24468;52.128;9.278;2023-05-29T07:24:48;101513.06;;;13.34;100.00
38718;BME280;24468;52.128;9.278;2023-05-29T07:27:13;101515.16;;;13.28;100.00
38718;BME280;24468;52.128;9.278;2023-05-29T07:29:39;101515.28;;;13.69;100.00
38718;BME280;24468;52.128;9.278;2023-05-29T07:32:05;101513.25;;;13.96;100.00
38718;BME280;24468;52.128;9.278;2023-05-29T07:34:30;101514.59;;;14.06;100.00
38718;BME280;24468;52.128;9.278;2023-05-29T07:39:25;101518.13;;;14.49;100.00
38718;BME280;24468;52.128;9.278;2023-05-29T07:41:51;101513.34;;;14.75;100.00
38718;BME280;24468;52.128;9.278;2023-05-29T07:44:17;101513.50;;;14.31;100.00
38718;BME280;24468;52.128;9.278;2023-05-29T07:46:43;101512.44;;;14.35;100.00
38718;BME280;24468;52.128;9.278;2023-05-29T07:49:08;101517.50;;;14.42;100.00
38718;BME280;24468;52.128;9.278;2023-05-29T07:51:34;101512.59;;;14.51;100.00
38718;BME280;24468;52.128;9.278;2023-05-29T07:54:00;101515.28;;;14.73;100.00
38718;BME280;24468;52.128;9.278;2023-05-29T07:56:25;101501.25;;;14.82;100.00
38718;BME280;24468;52.128;9.278;2023-05-29T07:58:51;101516.03;;;14.35;100.00
38718;BME280;24468;52.128;9.278;2023-05-29T08:01:18;101512.44;;;14.55;100.00
38718;BME280;24468;52.128;9.278;2023-05-29T08:03:44;101515.25;;;14.54;100.00
38718;BME280;24468;52.128;9.278;2023-05-29T08:06:10;101506.69;;;14.82;100.00
38718;BME280;24468;52.128;9.278;2023-05-29T08:08:36;101503.84;;;15.23;100.00
38718;BME280;24468;52.128;9.278;2023-05-29T08:11:01;101515.28;;;15.10;100.00
38718;BME280;24468;52.128;9.278;2023-05-29T08:13:29;101512.44;;;15.13;100.00
38718;BME280;24468;52.128;9.278;2023-05-29T08:15:56;101508.41;;;15.22;100.00
38718;BME280;24468;52.128;9.278;2023-05-29T08:18:25;101505.81;;;15.19;100.00
38718;BME280;24468;52.128;9.278;2023-05-29T08:20:50;101500.50;;;15.35;100.00
38718;BME280;24468;52.128;9.278;2023-05-29T08:23:16;101493.63;;;15.28;100.00
38718;BME280;24468;52.128;9.278;2023-05-29T08:25:42;101496.34;;;15.47;100.00
38718;BME280;24468;52.128;9.278;2023-05-29T08:28:08;101500.81;;;15.65;100.00
38718;BME280;24468;52.128;9.278;2023-05-29T08:30:33;101489.47;;;15.38;100.00
38718;BME280;24468;52.128;9.278;2023-05-29T08:32:59;101485.19;;;15.51;100.00
38718;BME280;24468;52.128;9.278;2023-05-29T08:35:24;101507.53;;;15.77;100.00
38718;BME280;24468;52.128;9.278;2023-05-29T08:37:50;101499.56;;;15.55;100.00
38718;BME280;24468;52.128;9.278;2023-05-29T08:40:15;101514.41;;;15.48;100.00
38718;BME280;24468;52.128;9.278;2023-05-29T08:43:18;101505.94;;;15.35;100.00
38718;BME280;24468;52.128;9.278;2023-05-29T08:45:48;101507.59;;;15.75;100.00
38718;BME280;24468;52.128;9.278;2023-05-29T08:48:18;101511.72;;;16.02;100.00
38718;BME280;24468;52.128;9.278;2023-05-29T08:50:45;101507.38;;;15.80;99.78
38718;BME280;24468;52.128;9.278;2023-05-29T08:53:14;101507.25;;;15.64;98.15
38718;BME280;24468;52.128;9.278;2023-05-29T08:55:44;101514.41;;;15.84;100.00
38718;BME280;24468;52.128;9.278;2023-05-29T08:58:13;101506.16;;;15.68;99.48
38718;BME280;24468;52.128;9.278;2023-05-29T09:00:40;101515.25;;;15.67;98.12
38718;BME280;24468;52.128;9.278;2023-05-29T09:03:06;101507.13;;;15.85;97.43
38718;BME280;24468;52.128;9.278;2023-05-29T09:05:33;101512.59;;;15.66;99.02
38718;BME280;24468;52.128;9.278;2023-05-29T09:07:59;101513.16;;;16.09;96.76
38718;BME280;24468;52.128;9.278;2023-05-29T09:10:25;101501.97;;;16.48;96.62
38718;BME280;24468;52.128;9.278;2023-05-29T09:12:53;101514.13;;;16.25;94.38
38718;BME280;24468;52.128;9.278;2023-05-29T09:15:21;101514.34;;;16.20;94.46
38718;BME280;24468;52.128;9.278;2023-05-29T09:17:52;101517.66;;;16.27;93.48
38718;BME280;24468;52.128;9.278;2023-05-29T09:20:20;101501.69;;;16.70;93.40
38718;BME280;24468;52.128;9.278;2023-05-29T09:23:08;101516.91;;;16.41;95.11
38718;BME280;24468;52.128;9.278;2023-05-29T09:25:40;101513.78;;;16.49;93.62
38718;BME280;24468;52.128;9.278;2023-05-29T09:28:08;101519.88;;;16.36;94.47
38718;BME280;24468;52.128;9.278;2023-05-29T09:30:45;101522.13;;;16.45;92.22
38718;BME280;24468;52.128;9.278;2023-05-29T09:33:14;101528.81;;;16.56;93.98
38718;BME280;24468;52.128;9.278;2023-05-29T09:35:49;101517.59;;;16.79;89.00
38718;BME280;24468;52.128;9.278;2023-05-29T09:38:18;101520.78;;;16.70;87.70
38718;BME280;24468;52.128;9.278;2023-05-29T09:40:44;101514.84;;;17.28;87.11
38718;BME280;24468;52.128;9.278;2023-05-29T09:43:17;101519.09;;;16.85;86.08
38718;BME280;24468;52.128;9.278;2023-05-29T09:45:48;101527.81;;;16.92;84.57
38718;BME280;24468;52.128;9.278;2023-05-29T09:48:22;101509.41;;;17.28;84.75
38718;BME280;24468;52.128;9.278;2023-05-29T09:50:48;101520.47;;;17.09;86.10
38718;BME280;24468;52.128;9.278;2023-05-29T09:53:22;101518.78;;;16.74;84.55
38718;BME280;24468;52.128;9.278;2023-05-29T09:55:55;101515.63;;;16.99;81.61
38718;BME280;24468;52.128;9.278;2023-05-29T09:58:22;101517.66;;;17.43;82.89
38718;BME280;24468;52.128;9.278;2023-05-29T10:00:49;101511.84;;;17.33;79.50
38718;BME280;24468;52.128;9.278;2023-05-29T10:03:15;101503.47;;;17.84;79.63
38718;BME280;24468;52.128;9.278;2023-05-29T10:05:46;101506.56;;;17.46;76.29
38718;BME280;24468;52.128;9.278;2023-05-29T10:08:14;101497.50;;;17.45;77.58
38718;BME280;24468;52.128;9.278;2023-05-29T10:10:45;101502.78;;;17.48;78.29
38718;BME280;24468;52.128;9.278;2023-05-29T10:13:13;101504.81;;;17.61;77.54
38718;BME280;24468;52.128;9.278;2023-05-29T10:15:45;101501.41;;;18.03;75.86
38718;BME280;24468;52.128;9.278;2023-05-29T10:18:33;101498.63;;;17.73;77.24
38718;BME280;24468;52.128;9.278;2023-05-29T10:21:01;101493.81;;;18.08;77.14
38718;BME280;24468;52.128;9.278;2023-05-29T10:23:28;101488.41;;;17.76;77.71
38718;BME280;24468;52.128;9.278;2023-05-29T10:26:03;101490.81;;;18.13;77.04
38718;BME280;24468;52.128;9.278;2023-05-29T10:28:33;101482.53;;;18.29;77.45
38718;BME280;24468;52.128;9.278;2023-05-29T10:31:09;101491.81;;;17.96;76.16
38718;BME280;24468;52.128;9.278;2023-05-29T10:33:54;101490.84;;;18.27;74.87
38718;BME280;24468;52.128;9.278;2023-05-29T10:36:30;101487.59;;;18.20;72.76
38718;BME280;24468;52.128;9.278;2023-05-29T10:39:01;101496.75;;;18.05;74.53
38718;BME280;24468;52.128;9.278;2023-05-29T10:41:30;101488.13;;;18.56;73.16
38718;BME280;24468;52.128;9.278;2023-05-29T10:44:03;101476.75;;;18.78;70.34
38718;BME280;24468;52.128;9.278;2023-05-29T10:49:21;101477.81;;;19.04;71.69
38718;BME280;24468;52.128;9.278;2023-05-29T10:51:48;101468.63;;;19.46;66.08
38718;BME280;24468;52.128;9.278;2023-05-29T10:54:14;101479.25;;;18.38;69.16
38718;BME280;24468;52.128;9.278;2023-05-29T10:56:44;101469.59;;;19.18;69.39
38718;BME280;24468;52.128;9.278;2023-05-29T10:59:17;101470.78;;;19.41;69.69
38718;BME280;24468;52.128;9.278;2023-05-29T11:01:43;101465.03;;;19.73;69.86
38718;BME280;24468;52.128;9.278;2023-05-29T11:06:41;101469.50;;;19.20;72.94
38718;BME280;24468;52.128;9.278;2023-05-29T11:09:30;101473.47;;;19.14;70.12
38718;BME280;24468;52.128;9.278;2023-05-29T11:12:32;101461.47;;;19.17;70.40
38718;BME280;24468;52.128;9.278;2023-05-29T11:15:09;101457.47;;;19.08;69.54
38718;BME280;24468;52.128;9.278;2023-05-29T11:25:25;101466.38;;;18.97;68.18
38718;BME280;24468;52.128;9.278;2023-05-29T11:27:51;101462.88;;;19.09;64.78
38718;BME280;24468;52.128;9.278;2023-05-29T11:30:20;101463.56;;;19.40;63.69
38718;BME280;24468;52.128;9.278;2023-05-29T11:32:47;101465.59;;;19.09;63.66
38718;BME280;24468;52.128;9.278;2023-05-29T11:35:14;101449.09;;;19.38;64.34
38718;BME280;24468;52.128;9.278;2023-05-29T11:37:42;101456.78;;;19.19;64.78
38718;BME280;24468;52.128;9.278;2023-05-29T11:40:11;101457.88;;;19.43;66.25
38718;BME280;24468;52.128;9.278;2023-05-29T11:42:46;101451.38;;;19.31;61.79
38718;BME280;24468;52.128;9.278;2023-05-29T11:45:19;101459.56;;;18.90;66.48
38718;BME280;24468;52.128;9.278;2023-05-29T11:48:00;101460.81;;;18.99;63.25
38718;BME280;24468;52.128;9.278;2023-05-29T11:50:31;101448.31;;;19.09;65.97
38718;BME280;24468;52.128;9.278;2023-05-29T11:52:59;101448.22;;;18.96;66.31
38718;BME280;24468;52.128;9.278;2023-05-29T11:55:26;101444.81;;;19.61;65.25
38718;BME280;24468;52.128;9.278;2023-05-29T11:58:00;101447.84;;;19.29;63.80
38718;BME280;24468;52.128;9.278;2023-05-29T12:00:34;101446.88;;;19.72;63.47
38718;BME280;24468;52.128;9.278;2023-05-29T12:03:00;101454.72;;;19.49;63.98
38718;BME280;24468;52.128;9.278;2023-05-29T12:05:45;101457.53;;;19.62;61.74
38718;BME280;24468;52.128;9.278;2023-05-29T12:08:11;101458.22;;;19.66;64.07
38718;BME280;24468;52.128;9.278;2023-05-29T12:10:37;101452.25;;;19.86;61.89
38718;BME280;24468;52.128;9.278;2023-05-29T12:13:03;101442.09;;;19.88;62.68
38718;BME280;24468;52.128;9.278;2023-05-29T12:15:28;101440.81;;;19.52;61.73
38718;BME280;24468;52.128;9.278;2023-05-29T12:17:55;101454.47;;;19.40;61.48
38718;BME280;24468;52.128;9.278;2023-05-29T12:20:25;101447.44;;;19.36;60.10
38718;BME280;24468;52.128;9.278;2023-05-29T12:23:00;101452.69;;;19.53;60.59
38718;BME280;24468;52.128;9.278;2023-05-29T12:25:26;101434.41;;;19.81;63.98
38718;BME280;24468;52.128;9.278;2023-05-29T12:27:56;101437.22;;;19.79;59.62
38718;BME280;24468;52.128;9.278;2023-05-29T12:30:23;101424.34;;;20.07;59.10
38718;BME280;24468;52.128;9.278;2023-05-29T12:32:52;101420.84;;;20.81;56.71
38718;BME280;24468;52.128;9.278;2023-05-29T12:35:20;101430.16;;;20.15;58.72
38718;BME280;24468;52.128;9.278;2023-05-29T12:40:22;101419.00;;;20.69;60.28
38718;BME280;24468;52.128;9.278;2023-05-29T12:43:02;101429.78;;;19.81;59.84
38718;BME280;24468;52.128;9.278;2023-05-29T12:45:30;101417.78;;;20.35;58.82
38718;BME280;24468;52.128;9.278;2023-05-29T12:47:59;101433.56;;;20.31;58.43
38718;BME280;24468;52.128;9.278;2023-05-29T12:50:29;101424.28;;;20.59;60.40
38718;BME280;24468;52.128;9.278;2023-05-29T12:53:10;101427.47;;;20.66;59.36
38718;BME280;24468;52.128;9.278;2023-05-29T12:55:38;101433.03;;;20.52;56.54
38718;BME280;24468;52.128;9.278;2023-05-29T12:58:06;101432.09;;;19.87;59.68
38718;BME280;24468;52.128;9.278;2023-05-29T13:00:34;101426.47;;;20.16;60.78
38718;BME280;24468;52.128;9.278;2023-05-29T13:03:00;101427.78;;;20.36;58.31
38718;BME280;24468;52.128;9.278;2023-05-29T13:05:26;101433.91;;;20.39;60.15
38718;BME280;24468;52.128;9.278;2023-05-29T13:07:52;101434.78;;;20.40;61.56